createdAt,value
2019-02-26T00:01:30.801Z,40.60
2019-02-26T00:04:00.589Z,40.60
2019-02-26T00:06:30.329Z,40.50
2019-02-26T00:09:01.922Z,40.50
2019-02-26T00:11:32.916Z,40.40
2019-02-26T00:14:01.772Z,40.40
2019-02-26T00:16:35.231Z,40.40
2019-02-26T00:19:03.152Z,40.40
2019-02-26T00:21:31.915Z,40.40
2019-02-26T00:24:00.897Z,40.40
2019-02-26T00:26:29.806Z,40.30
2019-02-26T00:28:59.772Z,40.90
2019-02-26T00:31:30.489Z,40.30
2019-02-26T00:34:00.278Z,40.30
2019-02-26T00:36:31.443Z,40.30
2019-02-26T00:39:02.913Z,40.30
2019-02-26T00:41:33.643Z,40.30
2019-02-26T00:44:04.227Z,40.30
2019-02-26T00:46:34.839Z,40.20
2019-02-26T00:49:05.776Z,40.10
2019-02-26T00:51:34.763Z,40.10
2019-02-26T00:54:04.108Z,40.10
2019-02-26T00:56:34.063Z,40.10
2019-02-26T00:59:03.772Z,40.00
2019-02-26T01:01:32.731Z,40.10
2019-02-26T01:04:01.563Z,40.10
2019-02-26T01:06:31.246Z,40.00
2019-02-26T01:09:03.222Z,40.00
2019-02-26T01:11:31.569Z,40.00
2019-02-26T01:14:00.560Z,39.90
2019-02-26T01:16:29.556Z,39.90
2019-02-26T01:18:58.473Z,39.80
2019-02-26T01:21:29.108Z,39.80
2019-02-26T01:23:59.595Z,39.70
2019-02-26T01:26:28.549Z,40.40
2019-02-26T01:28:58.538Z,39.80
2019-02-26T01:31:29.251Z,39.80
2019-02-26T01:33:58.505Z,39.90
2019-02-26T01:36:27.465Z,39.90
2019-02-26T01:38:56.425Z,39.90
2019-02-26T01:41:27.182Z,40.00
2019-02-26T01:43:55.766Z,40.00
2019-02-26T01:46:24.645Z,40.00
2019-02-26T01:48:55.051Z,40.00
2019-02-26T01:51:24.422Z,40.00
2019-02-26T01:53:54.481Z,40.00
2019-02-26T01:56:23.301Z,40.00
2019-02-26T01:58:56.548Z,40.00
2019-02-26T02:01:23.890Z,40.00
2019-02-26T02:03:56.030Z,40.00
2019-02-26T02:06:23.976Z,40.00
2019-02-26T02:08:55.010Z,40.00
2019-02-26T02:11:23.724Z,40.00
2019-02-26T02:13:53.972Z,40.00
2019-02-26T02:16:24.273Z,40.00
2019-02-26T02:18:55.290Z,40.00
2019-02-26T02:21:25.864Z,40.00
2019-02-26T02:23:54.681Z,40.00
2019-02-26T02:26:23.553Z,40.00
2019-02-26T02:28:52.371Z,40.00
2019-02-26T02:31:22.047Z,40.00
2019-02-26T02:33:51.692Z,40.00
2019-02-26T02:36:22.959Z,40.00
2019-02-26T02:38:51.042Z,40.00
2019-02-26T02:41:19.912Z,39.90
2019-02-26T02:43:48.734Z,40.00
2019-02-26T02:46:17.612Z,39.90
2019-02-26T02:48:46.417Z,39.90
2019-02-26T02:51:15.300Z,40.00
2019-02-26T02:53:45.275Z,39.90
2019-02-26T02:56:15.356Z,39.90
2019-02-26T02:58:46.896Z,39.90
2019-02-26T03:01:16.648Z,39.90
2019-02-26T03:03:47.729Z,39.90
2019-02-26T03:06:16.980Z,39.90
2019-02-26T03:08:47.931Z,39.90
2019-02-26T03:11:16.425Z,39.90
2019-02-26T03:13:45.774Z,39.90
2019-02-26T03:16:18.342Z,39.90
2019-02-26T03:18:46.423Z,39.90
2019-02-26T03:21:16.668Z,39.90
2019-02-26T03:23:46.041Z,39.90
2019-02-26T03:26:15.239Z,39.90
2019-02-26T03:28:48.026Z,39.90
2019-02-26T03:31:16.006Z,39.90
2019-02-26T03:33:44.874Z,39.80
2019-02-26T03:36:14.579Z,39.90
2019-02-26T03:38:48.385Z,39.90
2019-02-26T03:41:16.691Z,39.90
2019-02-26T03:43:45.330Z,39.90
2019-02-26T03:46:14.133Z,39.90
2019-02-26T03:48:43.015Z,39.90
2019-02-26T03:51:11.905Z,39.80
2019-02-26T03:53:41.861Z,39.80
2019-02-26T03:56:12.574Z,39.90
2019-02-26T03:58:41.900Z,39.90
2019-02-26T04:01:13.061Z,39.90
2019-02-26T04:03:42.480Z,39.80
2019-02-26T04:06:12.156Z,39.90
2019-02-26T04:08:42.233Z,39.90
2019-02-26T04:11:13.681Z,39.90
2019-02-26T04:13:43.287Z,39.80
2019-02-26T04:16:12.868Z,39.80
2019-02-26T04:18:41.794Z,39.90
2019-02-26T04:21:12.078Z,39.90
2019-02-26T04:23:42.175Z,39.80
2019-02-26T04:26:52.994Z,39.90
2019-02-26T04:29:35.445Z,39.90
2019-02-26T04:33:04.165Z,39.90
2019-02-26T04:35:42.328Z,39.80
2019-02-26T04:38:55.654Z,39.80
2019-02-26T04:41:54.337Z,39.80
2019-02-26T04:45:10.425Z,39.80
2019-02-26T04:47:40.769Z,39.80
2019-02-26T04:50:09.891Z,39.80
2019-02-26T04:52:41.339Z,39.90
2019-02-26T04:55:09.381Z,39.90
2019-02-26T04:57:42.023Z,39.80
2019-02-26T05:00:10.559Z,39.80
2019-02-26T05:02:39.585Z,39.80
2019-02-26T05:05:08.579Z,39.90
2019-02-26T05:07:38.533Z,39.80
2019-02-26T05:10:08.127Z,39.70
2019-02-26T05:12:39.949Z,40.40
2019-02-26T05:15:11.626Z,39.80
2019-02-26T05:17:38.186Z,39.80
2019-02-26T05:20:10.652Z,39.70
2019-02-26T05:22:37.961Z,39.70
2019-02-26T05:25:10.383Z,39.70
2019-02-26T05:27:39.765Z,39.70
2019-02-26T05:30:09.735Z,39.70
2019-02-26T05:32:38.777Z,39.70
2019-02-26T05:35:07.741Z,39.70
2019-02-26T05:37:40.230Z,39.70
2019-02-26T05:40:10.376Z,39.70
2019-02-26T05:42:37.866Z,39.70
2019-02-26T05:45:09.205Z,39.70
2019-02-26T05:47:37.525Z,39.60
2019-02-26T05:50:09.515Z,39.60
2019-02-26T05:52:37.010Z,39.60
2019-02-26T05:55:05.909Z,39.60
2019-02-26T05:57:34.785Z,39.60
2019-02-26T06:00:03.885Z,39.60
2019-02-26T06:02:32.714Z,39.50
2019-02-26T06:05:01.524Z,39.60
2019-02-26T06:07:33.433Z,39.50
2019-02-26T06:10:00.861Z,39.60
2019-02-26T06:12:32.387Z,39.60
2019-02-26T06:15:04.174Z,39.60
2019-02-26T06:17:30.961Z,39.60
2019-02-26T06:20:10.855Z,39.60
2019-02-26T06:22:38.833Z,39.60
2019-02-26T06:25:12.884Z,39.60
2019-02-26T06:27:38.408Z,39.60
2019-02-26T06:30:11.570Z,39.50
2019-02-26T06:32:41.800Z,39.50
2019-02-26T06:35:13.663Z,39.50
2019-02-26T06:37:42.501Z,39.60
2019-02-26T06:40:12.420Z,39.60
2019-02-26T06:42:41.245Z,39.60
2019-02-26T06:45:13.268Z,39.60
2019-02-26T06:47:42.307Z,39.60
2019-02-26T06:50:13.090Z,39.60
2019-02-26T06:52:43.001Z,39.60
2019-02-26T06:55:12.609Z,39.60
2019-02-26T06:57:44.014Z,39.70
2019-02-26T07:00:13.286Z,39.60
2019-02-26T07:02:45.483Z,39.60
2019-02-26T07:05:13.490Z,39.60
2019-02-26T07:07:42.434Z,39.60
2019-02-26T07:10:16.014Z,39.60
2019-02-26T07:12:45.276Z,39.60
2019-02-26T07:15:14.933Z,39.60
2019-02-26T07:17:45.981Z,39.50
2019-02-26T07:20:14.491Z,39.50
2019-02-26T07:22:43.946Z,39.50
2019-02-26T07:25:16.467Z,39.80
2019-02-26T07:27:44.542Z,39.60
2019-02-26T07:30:13.493Z,39.60
2019-02-26T07:32:45.057Z,39.50
2019-02-26T07:35:16.003Z,39.50
2019-02-26T07:37:43.731Z,39.80
2019-02-26T07:40:15.657Z,39.60
2019-02-26T07:42:46.052Z,39.50
2019-02-26T07:45:15.316Z,39.60
2019-02-26T07:47:45.307Z,39.60
2019-02-26T07:50:15.104Z,39.60
2019-02-26T07:52:45.030Z,39.50
2019-02-26T07:55:16.822Z,39.60
2019-02-26T07:57:45.565Z,39.60
2019-02-26T08:00:17.202Z,39.60
2019-02-26T08:02:46.106Z,39.60
2019-02-26T08:05:16.993Z,39.50
2019-02-26T08:07:46.671Z,39.50
2019-02-26T08:10:17.410Z,39.50
2019-02-26T08:12:47.484Z,39.60
2019-02-26T08:15:16.818Z,39.60
2019-02-26T08:17:50.106Z,39.60
2019-02-26T08:20:16.514Z,39.60
2019-02-26T08:22:45.461Z,39.50
2019-02-26T08:25:15.649Z,39.50
2019-02-26T08:27:44.525Z,39.50
2019-02-26T08:30:20.742Z,40.10
2019-02-26T08:32:51.106Z,39.50
2019-02-26T08:35:19.053Z,39.50
2019-02-26T08:37:47.958Z,39.50
2019-02-26T08:40:16.854Z,39.50
2019-02-26T08:42:45.742Z,39.50
2019-02-26T08:45:17.773Z,39.50
2019-02-26T08:47:46.960Z,39.50
2019-02-26T08:50:15.935Z,39.50
2019-02-26T08:52:47.126Z,39.40
2019-02-26T08:55:17.710Z,39.40
2019-02-26T08:57:46.177Z,39.40
2019-02-26T09:00:16.806Z,39.40
2019-02-26T09:02:46.685Z,39.50
2019-02-26T09:05:16.347Z,39.50
2019-02-26T09:07:47.433Z,39.50
2019-02-26T09:10:17.844Z,39.50
2019-02-26T09:12:48.643Z,39.50
2019-02-26T09:15:17.493Z,39.30
2019-02-26T09:17:46.381Z,39.40
2019-02-26T09:20:15.748Z,39.40
2019-02-26T09:22:48.080Z,39.40
2019-02-26T09:25:15.441Z,39.50
2019-02-26T09:27:44.343Z,39.50
2019-02-26T09:30:16.168Z,39.60
2019-02-26T09:32:45.240Z,39.60
2019-02-26T09:35:16.909Z,39.70
2019-02-26T09:37:47.327Z,39.70
2019-02-26T09:40:17.122Z,39.70
2019-02-26T09:42:51.405Z,39.80
2019-02-26T09:45:20.405Z,39.70
2019-02-26T09:47:49.737Z,39.70
2019-02-26T09:50:20.736Z,39.70
2019-02-26T09:52:50.831Z,39.70
2019-02-26T09:55:20.501Z,39.70
2019-02-26T09:57:49.377Z,39.80
2019-02-26T10:00:22.084Z,39.80
2019-02-26T10:02:49.929Z,39.80
2019-02-26T10:05:19.833Z,39.70
2019-02-26T10:07:50.741Z,39.80
2019-02-26T10:10:19.399Z,39.80
2019-02-26T10:12:48.302Z,39.90
2019-02-26T10:15:17.284Z,39.70
2019-02-26T10:17:46.177Z,39.80
2019-02-26T10:20:17.722Z,39.80
2019-02-26T10:22:47.818Z,39.90
2019-02-26T10:25:16.851Z,39.90
2019-02-26T10:27:47.795Z,40.00
2019-02-26T10:30:16.650Z,39.90
2019-02-26T10:32:46.847Z,40.00
2019-02-26T10:35:20.229Z,39.90
2019-02-26T10:37:54.534Z,40.00
2019-02-26T10:40:23.709Z,40.10
2019-02-26T10:42:52.667Z,40.10
2019-02-26T10:45:23.762Z,40.10
2019-02-26T10:47:54.222Z,40.10
2019-02-26T10:50:25.589Z,40.10
2019-02-26T10:52:57.624Z,40.10
2019-02-26T10:55:31.484Z,40.10
2019-02-26T10:57:58.381Z,40.00
2019-02-26T11:00:30.148Z,40.00
2019-02-26T11:02:56.703Z,40.00
2019-02-26T11:05:26.424Z,40.00
2019-02-26T11:07:58.760Z,40.00
2019-02-26T11:10:26.285Z,40.00
2019-02-26T11:12:58.615Z,40.00
2019-02-26T11:15:26.832Z,40.00
2019-02-26T11:17:56.597Z,40.00
2019-02-26T11:20:29.998Z,40.00
2019-02-26T11:22:56.156Z,40.00
2019-02-26T11:25:27.445Z,40.00
2019-02-26T11:27:55.722Z,40.00
2019-02-26T11:30:27.172Z,40.00
2019-02-26T11:32:58.687Z,40.00
2019-02-26T11:35:27.372Z,40.60
2019-02-26T11:37:57.840Z,39.90
2019-02-26T11:40:30.258Z,39.90
2019-02-26T11:42:59.935Z,39.90
2019-02-26T11:45:28.560Z,40.00
2019-02-26T11:48:00.406Z,39.90
2019-02-26T11:50:28.509Z,39.90
2019-02-26T11:52:57.569Z,39.90
2019-02-26T11:55:29.191Z,39.90
2019-02-26T11:57:57.046Z,39.90
2019-02-26T12:00:37.334Z,39.90
2019-02-26T12:03:04.953Z,40.00
2019-02-26T12:05:36.022Z,40.00
2019-02-26T12:08:04.586Z,40.00
2019-02-26T12:10:35.884Z,40.00
2019-02-26T12:13:05.037Z,39.90
2019-02-26T12:15:36.302Z,39.90
2019-02-26T12:18:04.648Z,39.80
2019-02-26T12:20:35.473Z,39.90
2019-02-26T12:23:04.239Z,39.80
2019-02-26T12:25:33.154Z,39.90
2019-02-26T12:28:02.876Z,39.90
2019-02-26T12:30:34.823Z,39.80
2019-02-26T12:33:03.097Z,39.70
2019-02-26T12:35:33.362Z,39.80
2019-02-26T12:38:17.374Z,39.80
2019-02-26T12:40:33.189Z,39.90
2019-02-26T12:43:05.348Z,40.50
2019-02-26T12:45:35.118Z,39.80
2019-02-26T12:48:03.372Z,39.90
2019-02-26T12:50:36.086Z,39.90
2019-02-26T12:53:03.372Z,40.00
2019-02-26T12:55:35.106Z,40.00
2019-02-26T12:58:03.150Z,40.10
2019-02-26T13:00:32.980Z,40.10
2019-02-26T13:03:05.701Z,40.20
2019-02-26T13:05:35.307Z,40.10
2019-02-26T13:08:03.844Z,40.10
2019-02-26T13:10:32.802Z,40.10
2019-02-26T13:13:03.906Z,40.10
2019-02-26T13:15:32.381Z,40.10
2019-02-26T13:18:01.222Z,40.10
2019-02-26T13:20:30.102Z,40.10
2019-02-26T13:23:16.278Z,40.10
2019-02-26T13:25:29.546Z,40.00
2019-02-26T13:27:58.365Z,40.00
2019-02-26T13:30:27.313Z,40.00
2019-02-26T13:33:00.009Z,40.10
2019-02-26T13:35:26.801Z,40.10
2019-02-26T13:37:55.642Z,40.20
2019-02-26T13:40:24.547Z,40.10
2019-02-26T13:45:24.477Z,40.10
2019-02-26T13:48:00.690Z,40.20
2019-02-26T13:50:25.920Z,40.10
2019-02-26T13:52:54.890Z,40.10
2019-02-26T13:55:23.761Z,40.00
2019-02-26T13:57:52.833Z,40.10
2019-02-26T14:00:26.332Z,40.10
2019-02-26T14:02:52.392Z,40.10
2019-02-26T14:05:21.363Z,40.10
2019-02-26T14:07:50.242Z,40.20
2019-02-26T14:10:19.231Z,40.20
2019-02-26T14:12:48.213Z,40.30
2019-02-26T14:15:19.738Z,40.20
2019-02-26T14:17:48.629Z,40.20
2019-02-26T14:20:17.605Z,40.30
2019-02-26T14:22:46.605Z,40.30
2019-02-26T14:25:15.577Z,40.20
2019-02-26T14:27:44.505Z,40.30
2019-02-26T14:30:14.276Z,40.40
2019-02-26T14:32:43.330Z,40.30
2019-02-26T14:35:12.349Z,40.30
2019-02-26T14:37:41.314Z,40.30
2019-02-26T14:40:11.502Z,40.40
2019-02-26T14:42:40.495Z,40.40
2019-02-26T14:45:11.947Z,40.40
2019-02-26T14:47:40.828Z,40.30
2019-02-26T14:50:11.963Z,40.40
2019-02-26T14:52:41.040Z,40.30
2019-02-26T14:55:10.793Z,40.50
2019-02-26T14:57:39.693Z,40.40
2019-02-26T15:00:12.672Z,40.30
2019-02-26T15:02:41.554Z,40.30
2019-02-26T15:05:10.519Z,40.40
2019-02-26T15:07:39.400Z,40.40
2019-02-26T15:10:08.682Z,40.40
2019-02-26T15:12:37.478Z,40.40
2019-02-26T15:15:06.708Z,40.50
2019-02-26T15:17:35.649Z,40.50
2019-02-26T15:20:05.504Z,40.40
2019-02-26T15:22:34.321Z,40.40
2019-02-26T15:25:03.242Z,40.40
2019-02-26T15:27:36.950Z,40.40
2019-02-26T15:30:03.100Z,40.50
2019-02-26T15:32:31.985Z,40.40
2019-02-26T15:35:00.783Z,40.40
2019-02-26T15:37:29.621Z,40.50
2019-02-26T15:39:58.698Z,40.60
2019-02-26T15:42:27.581Z,40.70
2019-02-26T15:44:57.622Z,40.70
2019-02-26T15:47:27.019Z,40.80
2019-02-26T15:49:55.938Z,40.80
2019-02-26T15:52:24.846Z,40.80
2019-02-26T15:54:57.302Z,40.80
2019-02-26T15:57:24.185Z,40.80
2019-02-26T15:59:52.981Z,40.80
2019-02-26T16:02:21.885Z,40.80
2019-02-26T16:04:50.689Z,40.80
2019-02-26T16:07:19.509Z,40.90
2019-02-26T16:09:48.318Z,40.90
2019-02-26T16:12:17.209Z,40.80
2019-02-26T16:14:46.056Z,40.90
2019-02-26T16:17:14.938Z,40.90
2019-02-26T16:19:43.786Z,40.90
2019-02-26T16:22:12.797Z,40.90
2019-02-26T16:24:41.689Z,40.90
2019-02-26T16:27:10.517Z,40.90
2019-02-26T16:29:39.326Z,40.90
2019-02-26T16:32:08.194Z,41.00
2019-02-26T16:34:37.001Z,40.80
2019-02-26T16:37:07.814Z,41.00
2019-02-26T16:39:36.568Z,41.60
2019-02-26T16:42:05.593Z,40.90
2019-02-26T16:44:34.473Z,41.00
2019-02-26T16:47:05.185Z,40.90
2019-02-26T16:49:33.897Z,40.90
2019-02-26T16:52:02.770Z,41.10
2019-02-26T16:54:31.663Z,40.90
2019-02-26T16:57:00.466Z,41.00
2019-02-26T16:59:29.348Z,41.00
2019-02-26T17:01:58.240Z,41.00
2019-02-26T17:04:27.532Z,41.00
2019-02-26T17:06:56.542Z,41.00
2019-02-26T17:09:25.361Z,41.00
2019-02-26T17:11:54.254Z,41.00
2019-02-26T17:14:23.160Z,41.00
2019-02-26T17:16:52.056Z,41.00
2019-02-26T17:19:20.922Z,41.00
2019-02-26T17:21:49.810Z,41.00
2019-02-26T17:24:20.609Z,41.00
2019-02-26T17:26:49.409Z,41.00
2019-02-26T17:29:19.713Z,41.00
2019-02-26T17:31:48.572Z,41.00
2019-02-26T17:34:17.732Z,41.00
2019-02-26T17:36:48.062Z,41.00
2019-02-26T17:39:17.029Z,41.00
2019-02-26T17:41:45.861Z,41.00
2019-02-26T17:44:14.670Z,41.00
2019-02-26T17:46:43.474Z,41.00
2019-02-26T17:49:12.379Z,41.00
2019-02-26T17:51:41.168Z,41.00
2019-02-26T17:54:10.065Z,41.00
2019-02-26T17:56:38.871Z,41.00
2019-02-26T17:59:07.685Z,41.00
2019-02-26T18:01:36.565Z,40.90
2019-02-26T18:04:05.529Z,41.00
2019-02-26T18:06:34.482Z,40.90
2019-02-26T18:09:03.368Z,40.90
2019-02-26T18:11:32.237Z,40.90
2019-02-26T18:14:01.137Z,41.10
2019-02-26T18:16:31.792Z,41.10
2019-02-26T18:19:00.670Z,40.90
2019-02-26T18:21:29.549Z,41.00
2019-02-26T18:23:58.366Z,41.00
2019-02-26T18:26:27.201Z,41.00
2019-02-26T18:28:56.078Z,41.00
2019-02-26T18:31:26.648Z,41.00
2019-02-26T18:33:55.546Z,41.00
2019-02-26T18:36:24.448Z,40.90
2019-02-26T18:38:53.237Z,40.90
2019-02-26T18:41:22.105Z,40.90
2019-02-26T18:43:50.998Z,40.90
2019-02-26T18:46:19.804Z,40.90
2019-02-26T18:48:49.215Z,40.90
2019-02-26T18:51:18.184Z,40.90
2019-02-26T18:53:47.731Z,40.90
2019-02-26T18:56:16.709Z,40.90
2019-02-26T18:58:46.644Z,40.90
2019-02-26T19:01:16.043Z,40.90
2019-02-26T19:03:44.844Z,40.90
2019-02-26T19:06:13.661Z,40.90
2019-02-26T19:08:42.461Z,40.90
2019-02-26T19:11:16.492Z,40.90
2019-02-26T19:13:41.905Z,40.90
2019-02-26T19:16:10.797Z,40.90
2019-02-26T19:18:39.621Z,40.90
2019-02-26T19:21:08.425Z,40.90
2019-02-26T19:23:37.242Z,40.90
2019-02-26T19:26:06.125Z,40.90
2019-02-26T19:28:34.957Z,40.90
2019-02-26T19:31:03.760Z,40.90
2019-02-26T19:33:32.577Z,40.90
2019-02-26T19:36:01.374Z,40.90
2019-02-26T19:38:30.183Z,40.80
2019-02-26T19:41:00.756Z,40.80
2019-02-26T19:43:29.568Z,40.80
2019-02-26T19:45:58.385Z,40.90
2019-02-26T19:48:30.427Z,40.90
2019-02-26T19:50:57.787Z,40.90
2019-02-26T19:53:26.800Z,40.90
2019-02-26T19:55:55.690Z,40.90
2019-02-26T19:58:24.494Z,41.00
2019-02-26T20:00:53.823Z,41.00
2019-02-26T20:03:22.722Z,41.10
2019-02-26T20:05:51.607Z,41.10
2019-02-26T20:08:20.488Z,41.00
2019-02-26T20:10:53.392Z,41.10
2019-02-26T20:13:19.833Z,41.10
2019-02-26T20:15:48.650Z,41.10
2019-02-26T20:18:20.960Z,41.00
2019-02-26T20:20:48.057Z,41.00
2019-02-26T20:23:16.857Z,41.10
2019-02-26T20:25:46.914Z,41.00
2019-02-26T20:28:15.796Z,41.10
2019-02-26T20:30:44.780Z,41.10
2019-02-26T20:33:13.657Z,41.10
2019-02-26T20:35:45.138Z,41.10
2019-02-26T20:38:13.190Z,41.10
2019-02-26T20:40:41.986Z,41.10
2019-02-26T20:43:10.883Z,41.10
2019-02-26T20:45:39.691Z,41.20
2019-02-26T20:48:08.501Z,41.20
2019-02-26T20:50:37.303Z,41.20
2019-02-26T20:53:06.593Z,41.20
2019-02-26T20:55:35.414Z,41.30
2019-02-26T20:58:04.719Z,41.40
2019-02-26T21:00:34.327Z,41.40
2019-02-26T21:03:03.990Z,41.50
2019-02-26T21:05:34.654Z,41.50
2019-02-26T21:08:03.920Z,41.50
2019-02-26T21:10:33.457Z,41.50
2019-02-26T21:13:03.193Z,41.60
2019-02-26T21:15:32.728Z,41.50
2019-02-26T21:18:02.214Z,41.40
2019-02-26T21:20:31.081Z,41.50
2019-02-26T21:22:59.894Z,41.50
2019-02-26T21:25:28.861Z,41.40
2019-02-26T21:28:00.621Z,41.50
2019-02-26T21:30:28.387Z,41.50
2019-02-26T21:32:58.060Z,41.50
2019-02-26T21:35:27.473Z,41.50
2019-02-26T21:37:56.268Z,41.60
2019-02-26T21:40:25.086Z,41.60
2019-02-26T21:42:53.961Z,41.60
2019-02-26T21:45:22.917Z,41.70
2019-02-26T21:47:51.728Z,41.70
2019-02-26T21:50:22.918Z,41.70
2019-02-26T21:53:06.576Z,41.90
2019-02-26T21:55:21.965Z,41.90
2019-02-26T21:57:54.537Z,41.90
2019-02-26T22:00:23.109Z,41.90
2019-02-26T22:02:53.075Z,42.00
2019-02-26T22:05:23.123Z,42.00
2019-02-26T22:07:53.040Z,42.00
2019-02-26T22:10:22.881Z,42.00
2019-02-26T22:12:56.630Z,41.90
2019-02-26T22:15:23.770Z,41.80
2019-02-26T22:17:55.712Z,41.80
2019-02-26T22:20:35.778Z,41.80
2019-02-26T22:22:54.477Z,41.80
2019-02-26T22:25:23.354Z,41.80
2019-02-26T22:27:52.243Z,41.80
2019-02-26T22:30:22.157Z,41.70
2019-02-26T22:32:51.695Z,41.70
2019-02-26T22:35:20.564Z,41.70
2019-02-26T22:37:49.393Z,41.60
2019-02-26T22:40:18.267Z,41.60
2019-02-26T22:42:47.153Z,41.60
2019-02-26T22:45:16.119Z,41.50
2019-02-26T22:47:45.010Z,41.40
2019-02-26T22:50:13.977Z,41.40
2019-02-26T22:52:42.938Z,41.40
2019-02-26T22:55:16.075Z,41.40
2019-02-26T22:57:42.821Z,41.30
2019-02-26T23:01:01.033Z,41.30
2019-02-26T23:03:29.919Z,41.30
2019-02-26T23:05:59.651Z,41.30
2019-02-26T23:08:28.628Z,41.20
2019-02-26T23:10:58.043Z,41.20
2019-02-26T23:13:31.668Z,41.20
2019-02-26T23:15:58.139Z,41.30
2019-02-26T23:18:28.518Z,41.30
2019-02-26T23:20:57.772Z,41.20
2019-02-26T23:23:26.717Z,41.20
2019-02-26T23:25:55.677Z,41.20
2019-02-26T23:28:24.574Z,41.20
2019-02-26T23:30:53.596Z,41.30
2019-02-26T23:33:24.157Z,41.30
2019-02-26T23:35:55.129Z,41.30
2019-02-26T23:38:25.317Z,41.30
2019-02-26T23:40:55.046Z,41.20
2019-02-26T23:43:24.772Z,41.20
2019-02-26T23:45:56.827Z,41.20
2019-02-26T23:48:25.976Z,41.20
2019-02-26T23:50:56.142Z,41.20
2019-02-26T23:53:25.082Z,41.10
2019-02-26T23:55:53.945Z,41.20
2019-02-26T23:58:22.753Z,41.10
